sensor_id;sensor_type;location;lat;lon;timestamp;temperature;humidity
60455;DHT22;54989;53.398;6.564;2022-10-16T00:01:36;20.50;63.80
60455;DHT22;54989;53.398;6.564;2022-10-16T00:04:05;20.50;63.80
60455;DHT22;54989;53.398;6.564;2022-10-16T00:06:32;20.50;63.90
60455;DHT22;54989;53.398;6.564;2022-10-16T00:09:00;20.50;63.90
60455;DHT22;54989;53.398;6.564;2022-10-16T00:11:30;20.50;63.90
60455;DHT22;54989;53.398;6.564;2022-10-16T00:14:01;20.50;63.90
60455;DHT22;54989;53.398;6.564;2022-10-16T00:16:29;20.50;63.90
60455;DHT22;54989;53.398;6.564;2022-10-16T00:18:57;20.50;63.90
60455;DHT22;54989;53.398;6.564;2022-10-16T00:21:27;20.50;63.90
60455;DHT22;54989;53.398;6.564;2022-10-16T00:24:00;20.50;63.90
60455;DHT22;54989;53.398;6.564;2022-10-16T00:26:30;20.50;64.00
60455;DHT22;54989;53.398;6.564;2022-10-16T00:28:57;20.50;64.00
60455;DHT22;54989;53.398;6.564;2022-10-16T00:31:25;20.50;64.00
60455;DHT22;54989;53.398;6.564;2022-10-16T00:33:53;20.40;63.90
60455;DHT22;54989;53.398;6.564;2022-10-16T00:36:22;20.50;63.90
60455;DHT22;54989;53.398;6.564;2022-10-16T00:38:55;20.50;64.00
60455;DHT22;54989;53.398;6.564;2022-10-16T00:41:25;20.40;63.90
60455;DHT22;54989;53.398;6.564;2022-10-16T00:44:01;20.40;63.90
60455;DHT22;54989;53.398;6.564;2022-10-16T00:46:40;20.40;63.90
60455;DHT22;54989;53.398;6.564;2022-10-16T00:49:19;20.40;63.90
60455;DHT22;54989;53.398;6.564;2022-10-16T00:51:49;20.40;64.00
60455;DHT22;54989;53.398;6.564;2022-10-16T00:54:19;20.40;64.00
60455;DHT22;54989;53.398;6.564;2022-10-16T00:56:48;20.40;64.00
60455;DHT22;54989;53.398;6.564;2022-10-16T00:59:25;20.40;64.00
60455;DHT22;54989;53.398;6.564;2022-10-16T01:01:54;20.40;63.90
60455;DHT22;54989;53.398;6.564;2022-10-16T01:04:23;20.40;64.00
60455;DHT22;54989;53.398;6.564;2022-10-16T01:09:51;20.30;63.90
60455;DHT22;54989;53.398;6.564;2022-10-16T01:12:57;20.30;64.00
60455;DHT22;54989;53.398;6.564;2022-10-16T01:15:35;20.30;64.70
60455;DHT22;54989;53.398;6.564;2022-10-16T01:18:23;20.30;64.00
60455;DHT22;54989;53.398;6.564;2022-10-16T01:21:05;20.30;64.00
60455;DHT22;54989;53.398;6.564;2022-10-16T01:26:32;20.30;64.00
60455;DHT22;54989;53.398;6.564;2022-10-16T01:29:20;20.30;64.10
60455;DHT22;54989;53.398;6.564;2022-10-16T01:31:55;20.30;64.10
60455;DHT22;54989;53.398;6.564;2022-10-16T01:34:33;20.30;64.00
60455;DHT22;54989;53.398;6.564;2022-10-16T01:37:09;20.30;64.10
60455;DHT22;54989;53.398;6.564;2022-10-16T01:39:42;20.30;64.00
60455;DHT22;54989;53.398;6.564;2022-10-16T01:42:16;20.20;64.00
60455;DHT22;54989;53.398;6.564;2022-10-16T01:44:46;20.20;64.70
60455;DHT22;54989;53.398;6.564;2022-10-16T01:47:15;20.30;64.10
60455;DHT22;54989;53.398;6.564;2022-10-16T01:49:45;20.20;64.00
60455;DHT22;54989;53.398;6.564;2022-10-16T01:52:16;20.20;64.00
60455;DHT22;54989;53.398;6.564;2022-10-16T01:54:47;20.20;64.10
60455;DHT22;54989;53.398;6.564;2022-10-16T01:57:18;20.20;64.00
60455;DHT22;54989;53.398;6.564;2022-10-16T01:59:51;20.20;64.00
60455;DHT22;54989;53.398;6.564;2022-10-16T02:02:21;20.20;64.00
60455;DHT22;54989;53.398;6.564;2022-10-16T02:04:55;20.20;64.00
60455;DHT22;54989;53.398;6.564;2022-10-16T02:07:24;20.20;64.00
60455;DHT22;54989;53.398;6.564;2022-10-16T02:09:52;20.20;64.10
60455;DHT22;54989;53.398;6.564;2022-10-16T02:12:28;20.20;64.10
60455;DHT22;54989;53.398;6.564;2022-10-16T02:14:57;20.20;64.00
60455;DHT22;54989;53.398;6.564;2022-10-16T02:17:25;20.20;64.00
60455;DHT22;54989;53.398;6.564;2022-10-16T02:19:54;20.20;64.10
60455;DHT22;54989;53.398;6.564;2022-10-16T02:22:45;20.20;64.00
60455;DHT22;54989;53.398;6.564;2022-10-16T02:25:18;20.20;64.00
60455;DHT22;54989;53.398;6.564;2022-10-16T02:28:06;20.10;64.00
60455;DHT22;54989;53.398;6.564;2022-10-16T02:30:51;20.10;64.00
60455;DHT22;54989;53.398;6.564;2022-10-16T02:33:22;20.10;64.10
60455;DHT22;54989;53.398;6.564;2022-10-16T02:35:51;20.10;64.10
60455;DHT22;54989;53.398;6.564;2022-10-16T02:38:21;20.10;64.10
60455;DHT22;54989;53.398;6.564;2022-10-16T02:40:49;20.10;64.10
60455;DHT22;54989;53.398;6.564;2022-10-16T02:43:17;20.10;64.10
60455;DHT22;54989;53.398;6.564;2022-10-16T02:45:45;20.10;64.10
60455;DHT22;54989;53.398;6.564;2022-10-16T02:48:13;20.10;64.10
60455;DHT22;54989;53.398;6.564;2022-10-16T02:50:40;20.10;64.10
60455;DHT22;54989;53.398;6.564;2022-10-16T02:53:07;20.10;64.10
60455;DHT22;54989;53.398;6.564;2022-10-16T02:55:35;20.10;64.10
60455;DHT22;54989;53.398;6.564;2022-10-16T02:58:03;20.10;64.10
60455;DHT22;54989;53.398;6.564;2022-10-16T03:00:30;20.10;64.10
60455;DHT22;54989;53.398;6.564;2022-10-16T03:02:57;20.10;64.10
60455;DHT22;54989;53.398;6.564;2022-10-16T03:05:25;20.10;64.10
60455;DHT22;54989;53.398;6.564;2022-10-16T03:07:52;20.10;64.10
60455;DHT22;54989;53.398;6.564;2022-10-16T03:10:20;20.10;64.10
60455;DHT22;54989;53.398;6.564;2022-10-16T03:12:47;20.10;64.10
60455;DHT22;54989;53.398;6.564;2022-10-16T03:15:14;20.10;64.10
60455;DHT22;54989;53.398;6.564;2022-10-16T03:17:42;20.10;64.10
60455;DHT22;54989;53.398;6.564;2022-10-16T03:20:10;20.10;64.20
60455;DHT22;54989;53.398;6.564;2022-10-16T03:22:38;20.10;64.10
60455;DHT22;54989;53.398;6.564;2022-10-16T03:25:06;20.10;64.10
60455;DHT22;54989;53.398;6.564;2022-10-16T03:27:33;20.10;64.10
60455;DHT22;54989;53.398;6.564;2022-10-16T03:30:00;20.10;64.10
60455;DHT22;54989;53.398;6.564;2022-10-16T03:32:28;20.10;64.10
60455;DHT22;54989;53.398;6.564;2022-10-16T03:34:55;20.00;64.10
60455;DHT22;54989;53.398;6.564;2022-10-16T03:37:24;20.00;64.10
60455;DHT22;54989;53.398;6.564;2022-10-16T03:39:52;20.00;64.10
60455;DHT22;54989;53.398;6.564;2022-10-16T03:42:19;20.00;64.20
60455;DHT22;54989;53.398;6.564;2022-10-16T03:44:47;20.00;64.10
60455;DHT22;54989;53.398;6.564;2022-10-16T03:47:14;20.00;64.10
60455;DHT22;54989;53.398;6.564;2022-10-16T03:49:42;20.00;64.20
60455;DHT22;54989;53.398;6.564;2022-10-16T03:52:09;20.00;64.10
60455;DHT22;54989;53.398;6.564;2022-10-16T03:54:37;20.00;64.10
60455;DHT22;54989;53.398;6.564;2022-10-16T03:57:04;20.00;64.20
60455;DHT22;54989;53.398;6.564;2022-10-16T03:59:32;20.00;64.20
60455;DHT22;54989;53.398;6.564;2022-10-16T04:01:59;20.00;64.10
60455;DHT22;54989;53.398;6.564;2022-10-16T04:04:26;20.00;64.10
60455;DHT22;54989;53.398;6.564;2022-10-16T04:06:54;20.00;64.20
60455;DHT22;54989;53.398;6.564;2022-10-16T04:09:21;20.00;64.20
60455;DHT22;54989;53.398;6.564;2022-10-16T04:11:49;19.90;64.10
60455;DHT22;54989;53.398;6.564;2022-10-16T04:14:16;19.90;64.10
60455;DHT22;54989;53.398;6.564;2022-10-16T04:16:43;19.90;64.10
60455;DHT22;54989;53.398;6.564;2022-10-16T04:19:11;19.90;64.10
60455;DHT22;54989;53.398;6.564;2022-10-16T04:21:39;19.90;64.10
60455;DHT22;54989;53.398;6.564;2022-10-16T04:24:06;19.90;64.10
60455;DHT22;54989;53.398;6.564;2022-10-16T04:26:34;19.90;64.20
60455;DHT22;54989;53.398;6.564;2022-10-16T04:29:01;19.90;64.20
60455;DHT22;54989;53.398;6.564;2022-10-16T04:31:29;19.90;64.20
60455;DHT22;54989;53.398;6.564;2022-10-16T04:33:56;19.90;64.20
60455;DHT22;54989;53.398;6.564;2022-10-16T04:36:23;19.90;64.20
60455;DHT22;54989;53.398;6.564;2022-10-16T04:38:55;19.90;64.20
60455;DHT22;54989;53.398;6.564;2022-10-16T04:41:22;19.90;64.20
60455;DHT22;54989;53.398;6.564;2022-10-16T04:43:50;19.90;64.20
60455;DHT22;54989;53.398;6.564;2022-10-16T04:46:17;19.90;64.20
60455;DHT22;54989;53.398;6.564;2022-10-16T04:48:45;19.90;64.10
60455;DHT22;54989;53.398;6.564;2022-10-16T04:51:13;19.90;64.20
60455;DHT22;54989;53.398;6.564;2022-10-16T04:53:41;19.80;64.20
60455;DHT22;54989;53.398;6.564;2022-10-16T04:56:08;19.80;64.20
60455;DHT22;54989;53.398;6.564;2022-10-16T04:58:36;19.80;64.20
60455;DHT22;54989;53.398;6.564;2022-10-16T05:01:03;19.80;64.20
60455;DHT22;54989;53.398;6.564;2022-10-16T05:03:30;19.80;64.10
60455;DHT22;54989;53.398;6.564;2022-10-16T05:05:58;19.80;64.80
60455;DHT22;54989;53.398;6.564;2022-10-16T05:08:25;19.80;64.20
60455;DHT22;54989;53.398;6.564;2022-10-16T05:10:53;19.80;64.20
60455;DHT22;54989;53.398;6.564;2022-10-16T05:13:20;19.80;64.20
60455;DHT22;54989;53.398;6.564;2022-10-16T05:15:48;19.80;64.10
60455;DHT22;54989;53.398;6.564;2022-10-16T05:18:16;19.80;64.10
60455;DHT22;54989;53.398;6.564;2022-10-16T05:20:44;19.80;64.20
60455;DHT22;54989;53.398;6.564;2022-10-16T05:23:12;19.90;64.30
60455;DHT22;54989;53.398;6.564;2022-10-16T05:25:52;19.80;64.20
60455;DHT22;54989;53.398;6.564;2022-10-16T05:28:21;19.90;64.30
60455;DHT22;54989;53.398;6.564;2022-10-16T05:30:48;19.90;64.20
60455;DHT22;54989;53.398;6.564;2022-10-16T05:33:16;19.90;64.30
60455;DHT22;54989;53.398;6.564;2022-10-16T05:35:44;19.90;64.20
60455;DHT22;54989;53.398;6.564;2022-10-16T05:38:12;19.90;64.30
60455;DHT22;54989;53.398;6.564;2022-10-16T05:40:39;19.90;64.20
60455;DHT22;54989;53.398;6.564;2022-10-16T05:43:06;19.90;64.20
60455;DHT22;54989;53.398;6.564;2022-10-16T05:45:34;19.80;64.10
60455;DHT22;54989;53.398;6.564;2022-10-16T05:48:01;19.80;64.20
60455;DHT22;54989;53.398;6.564;2022-10-16T05:50:29;19.80;64.10
60455;DHT22;54989;53.398;6.564;2022-10-16T05:52:57;19.80;64.10
60455;DHT22;54989;53.398;6.564;2022-10-16T05:55:25;19.80;64.10
60455;DHT22;54989;53.398;6.564;2022-10-16T05:57:54;19.80;64.20
60455;DHT22;54989;53.398;6.564;2022-10-16T06:00:22;19.80;64.30
60455;DHT22;54989;53.398;6.564;2022-10-16T06:02:49;19.80;64.30
60455;DHT22;54989;53.398;6.564;2022-10-16T06:05:16;19.80;64.30
60455;DHT22;54989;53.398;6.564;2022-10-16T06:07:44;19.80;64.30
60455;DHT22;54989;53.398;6.564;2022-10-16T06:10:11;19.80;64.30
60455;DHT22;54989;53.398;6.564;2022-10-16T06:12:39;19.80;64.30
60455;DHT22;54989;53.398;6.564;2022-10-16T06:15:06;19.80;64.20
60455;DHT22;54989;53.398;6.564;2022-10-16T06:17:34;19.80;64.30
60455;DHT22;54989;53.398;6.564;2022-10-16T06:20:01;19.80;64.40
60455;DHT22;54989;53.398;6.564;2022-10-16T06:22:29;19.80;64.30
60455;DHT22;54989;53.398;6.564;2022-10-16T06:24:56;19.80;64.40
60455;DHT22;54989;53.398;6.564;2022-10-16T06:27:24;19.80;64.40
60455;DHT22;54989;53.398;6.564;2022-10-16T06:29:52;19.80;64.40
60455;DHT22;54989;53.398;6.564;2022-10-16T06:32:19;19.80;64.40
60455;DHT22;54989;53.398;6.564;2022-10-16T06:34:49;19.80;64.40
60455;DHT22;54989;53.398;6.564;2022-10-16T06:37:19;19.70;64.30
60455;DHT22;54989;53.398;6.564;2022-10-16T06:39:49;19.80;64.30
60455;DHT22;54989;53.398;6.564;2022-10-16T06:42:16;19.80;64.30
60455;DHT22;54989;53.398;6.564;2022-10-16T06:44:44;19.80;64.30
60455;DHT22;54989;53.398;6.564;2022-10-16T06:47:12;19.80;64.30
60455;DHT22;54989;53.398;6.564;2022-10-16T06:49:40;19.80;64.30
60455;DHT22;54989;53.398;6.564;2022-10-16T06:52:07;19.80;64.30
60455;DHT22;54989;53.398;6.564;2022-10-16T06:54:34;19.80;64.20
60455;DHT22;54989;53.398;6.564;2022-10-16T06:57:08;19.80;64.20
60455;DHT22;54989;53.398;6.564;2022-10-16T06:59:35;19.80;64.30
60455;DHT22;54989;53.398;6.564;2022-10-16T07:02:03;19.80;64.30
60455;DHT22;54989;53.398;6.564;2022-10-16T07:04:32;19.80;64.90
60455;DHT22;54989;53.398;6.564;2022-10-16T07:07:02;19.80;64.30
60455;DHT22;54989;53.398;6.564;2022-10-16T07:09:36;19.80;64.30
60455;DHT22;54989;53.398;6.564;2022-10-16T07:12:04;19.80;64.40
60455;DHT22;54989;53.398;6.564;2022-10-16T07:14:39;19.80;64.40
60455;DHT22;54989;53.398;6.564;2022-10-16T07:17:07;19.80;64.50
60455;DHT22;54989;53.398;6.564;2022-10-16T07:19:35;19.80;64.50
60455;DHT22;54989;53.398;6.564;2022-10-16T07:22:03;19.80;64.40
60455;DHT22;54989;53.398;6.564;2022-10-16T07:24:34;19.80;64.40
60455;DHT22;54989;53.398;6.564;2022-10-16T07:27:06;19.80;64.40
60455;DHT22;54989;53.398;6.564;2022-10-16T07:29:34;19.80;64.40
60455;DHT22;54989;53.398;6.564;2022-10-16T07:32:02;19.80;64.50
60455;DHT22;54989;53.398;6.564;2022-10-16T07:34:29;19.80;65.20
60455;DHT22;54989;53.398;6.564;2022-10-16T07:36:56;19.80;64.60
60455;DHT22;54989;53.398;6.564;2022-10-16T07:39:24;19.90;65.30
60455;DHT22;54989;53.398;6.564;2022-10-16T07:41:52;20.00;64.50
60455;DHT22;54989;53.398;6.564;2022-10-16T07:44:20;20.00;64.40
60455;DHT22;54989;53.398;6.564;2022-10-16T07:46:47;20.20;64.50
60455;DHT22;54989;53.398;6.564;2022-10-16T07:49:15;20.30;64.20
60455;DHT22;54989;53.398;6.564;2022-10-16T07:51:42;20.40;64.00
60455;DHT22;54989;53.398;6.564;2022-10-16T07:54:10;20.60;63.80
60455;DHT22;54989;53.398;6.564;2022-10-16T07:56:37;20.70;63.50
60455;DHT22;54989;53.398;6.564;2022-10-16T07:59:10;20.90;63.30
60455;DHT22;54989;53.398;6.564;2022-10-16T08:01:37;21.00;63.10
60455;DHT22;54989;53.398;6.564;2022-10-16T08:04:05;21.20;62.80
60455;DHT22;54989;53.398;6.564;2022-10-16T08:06:38;21.40;62.60
60455;DHT22;54989;53.398;6.564;2022-10-16T08:09:07;21.60;62.30
60455;DHT22;54989;53.398;6.564;2022-10-16T08:11:35;21.70;62.10
60455;DHT22;54989;53.398;6.564;2022-10-16T08:14:02;21.80;61.70
60455;DHT22;54989;53.398;6.564;2022-10-16T08:16:30;22.00;61.60
60455;DHT22;54989;53.398;6.564;2022-10-16T08:18:57;22.10;61.50
60455;DHT22;54989;53.398;6.564;2022-10-16T08:21:25;22.20;61.40
60455;DHT22;54989;53.398;6.564;2022-10-16T08:23:53;22.30;61.10
60455;DHT22;54989;53.398;6.564;2022-10-16T08:26:26;22.50;61.00
60455;DHT22;54989;53.398;6.564;2022-10-16T08:28:54;22.60;60.60
60455;DHT22;54989;53.398;6.564;2022-10-16T08:31:22;22.70;60.60
60455;DHT22;54989;53.398;6.564;2022-10-16T08:33:50;22.90;60.50
60455;DHT22;54989;53.398;6.564;2022-10-16T08:36:18;23.00;60.30
60455;DHT22;54989;53.398;6.564;2022-10-16T08:38:48;23.10;60.10
60455;DHT22;54989;53.398;6.564;2022-10-16T08:44:11;23.30;59.80
60455;DHT22;54989;53.398;6.564;2022-10-16T08:47:17;23.30;59.60
60455;DHT22;54989;53.398;6.564;2022-10-16T08:49:59;23.40;59.40
60455;DHT22;54989;53.398;6.564;2022-10-16T08:52:34;23.50;59.60
60455;DHT22;54989;53.398;6.564;2022-10-16T08:55:04;23.60;59.50
60455;DHT22;54989;53.398;6.564;2022-10-16T08:57:32;23.60;59.30
60455;DHT22;54989;53.398;6.564;2022-10-16T09:00:08;23.60;59.20
60455;DHT22;54989;53.398;6.564;2022-10-16T09:02:45;23.70;59.30
60455;DHT22;54989;53.398;6.564;2022-10-16T09:19:20;23.80;59.30
60455;DHT22;54989;53.398;6.564;2022-10-16T09:21:46;23.80;59.20
60455;DHT22;54989;53.398;6.564;2022-10-16T09:24:16;23.80;59.20
60455;DHT22;54989;53.398;6.564;2022-10-16T09:26:44;23.80;59.20
60455;DHT22;54989;53.398;6.564;2022-10-16T09:29:20;23.70;59.30
60455;DHT22;54989;53.398;6.564;2022-10-16T09:31:48;23.70;59.20
60455;DHT22;54989;53.398;6.564;2022-10-16T09:34:32;23.70;60.00
60455;DHT22;54989;53.398;6.564;2022-10-16T09:37:05;23.70;59.30
60455;DHT22;54989;53.398;6.564;2022-10-16T09:39:50;23.70;59.40
60455;DHT22;54989;53.398;6.564;2022-10-16T09:42:20;23.70;59.40
60455;DHT22;54989;53.398;6.564;2022-10-16T09:44:49;23.70;59.50
60455;DHT22;54989;53.398;6.564;2022-10-16T09:47:21;23.60;59.50
60455;DHT22;54989;53.398;6.564;2022-10-16T09:49:52;23.60;59.50
60455;DHT22;54989;53.398;6.564;2022-10-16T09:52:21;23.50;59.80
60455;DHT22;54989;53.398;6.564;2022-10-16T09:57:24;23.50;59.90
60455;DHT22;54989;53.398;6.564;2022-10-16T09:59:57;23.40;59.80
60455;DHT22;54989;53.398;6.564;2022-10-16T10:02:36;23.40;59.90
60455;DHT22;54989;53.398;6.564;2022-10-16T10:05:21;23.40;59.80
60455;DHT22;54989;53.398;6.564;2022-10-16T10:07:56;23.30;60.00
60455;DHT22;54989;53.398;6.564;2022-10-16T10:10:29;23.30;60.00
60455;DHT22;54989;53.398;6.564;2022-10-16T10:12:57;23.20;60.20
60455;DHT22;54989;53.398;6.564;2022-10-16T10:15:27;23.20;60.20
60455;DHT22;54989;53.398;6.564;2022-10-16T10:17:56;23.20;60.30
60455;DHT22;54989;53.398;6.564;2022-10-16T10:20:32;23.20;60.30
60455;DHT22;54989;53.398;6.564;2022-10-16T10:23:20;23.10;60.30
60455;DHT22;54989;53.398;6.564;2022-10-16T10:28:38;23.10;60.50
60455;DHT22;54989;53.398;6.564;2022-10-16T10:31:26;23.10;60.50
60455;DHT22;54989;53.398;6.564;2022-10-16T10:39:16;23.00;60.60
60455;DHT22;54989;53.398;6.564;2022-10-16T10:45:11;22.90;60.80
60455;DHT22;54989;53.398;6.564;2022-10-16T10:51:01;22.80;60.80
60455;DHT22;54989;53.398;6.564;2022-10-16T10:53:44;22.80;60.90
60455;DHT22;54989;53.398;6.564;2022-10-16T11:01:17;22.80;61.10
60455;DHT22;54989;53.398;6.564;2022-10-16T11:06:31;22.80;61.10
60455;DHT22;54989;53.398;6.564;2022-10-16T11:12:05;22.80;61.10
60455;DHT22;54989;53.398;6.564;2022-10-16T11:14:43;22.70;61.10
60455;DHT22;54989;53.398;6.564;2022-10-16T11:17:27;22.70;61.10
60455;DHT22;54989;53.398;6.564;2022-10-16T11:20:19;22.70;61.10
60455;DHT22;54989;53.398;6.564;2022-10-16T11:22:54;22.70;61.10
60455;DHT22;54989;53.398;6.564;2022-10-16T11:25:33;22.70;61.20
60455;DHT22;54989;53.398;6.564;2022-10-16T11:28:07;22.60;61.10
60455;DHT22;54989;53.398;6.564;2022-10-16T11:30:43;22.60;61.30
60455;DHT22;54989;53.398;6.564;2022-10-16T11:36:05;22.60;61.30
60455;DHT22;54989;53.398;6.564;2022-10-16T11:38:58;22.60;61.40
60455;DHT22;54989;53.398;6.564;2022-10-16T11:41:42;22.60;61.40
60455;DHT22;54989;53.398;6.564;2022-10-16T11:47:34;22.60;61.40
60455;DHT22;54989;53.398;6.564;2022-10-16T11:53:23;22.60;61.30
60455;DHT22;54989;53.398;6.564;2022-10-16T11:55:51;22.60;61.30
60455;DHT22;54989;53.398;6.564;2022-10-16T12:08:59;22.60;61.20
60455;DHT22;54989;53.398;6.564;2022-10-16T12:17:36;22.70;61.30
60455;DHT22;54989;53.398;6.564;2022-10-16T12:22:49;22.70;61.30
60455;DHT22;54989;53.398;6.564;2022-10-16T12:25:34;22.70;61.30
60455;DHT22;54989;53.398;6.564;2022-10-16T12:30:36;22.70;61.10
60455;DHT22;54989;53.398;6.564;2022-10-16T12:33:26;22.70;61.20
60455;DHT22;54989;53.398;6.564;2022-10-16T12:35:55;22.70;61.10
60455;DHT22;54989;53.398;6.564;2022-10-16T12:38:49;22.70;61.20
60455;DHT22;54989;53.398;6.564;2022-10-16T12:41:32;22.70;61.10
60455;DHT22;54989;53.398;6.564;2022-10-16T12:44:01;22.70;61.10
60455;DHT22;54989;53.398;6.564;2022-10-16T12:51:42;22.70;61.20
60455;DHT22;54989;53.398;6.564;2022-10-16T12:54:28;22.80;61.20
60455;DHT22;54989;53.398;6.564;2022-10-16T13:11:12;22.80;61.30
60455;DHT22;54989;53.398;6.564;2022-10-16T13:14:09;22.80;61.30
60455;DHT22;54989;53.398;6.564;2022-10-16T13:20:16;22.70;61.30
60455;DHT22;54989;53.398;6.564;2022-10-16T13:28:33;22.70;61.40
60455;DHT22;54989;53.398;6.564;2022-10-16T13:31:20;22.70;61.30
60455;DHT22;54989;53.398;6.564;2022-10-16T13:33:51;22.80;61.40
60455;DHT22;54989;53.398;6.564;2022-10-16T13:36:29;22.70;61.40
60455;DHT22;54989;53.398;6.564;2022-10-16T13:39:22;22.80;61.40
60455;DHT22;54989;53.398;6.564;2022-10-16T13:42:28;22.80;61.40
60455;DHT22;54989;53.398;6.564;2022-10-16T13:44:59;22.80;61.40
60455;DHT22;54989;53.398;6.564;2022-10-16T13:47:31;22.80;61.40
60455;DHT22;54989;53.398;6.564;2022-10-16T13:50:13;22.80;61.30
60455;DHT22;54989;53.398;6.564;2022-10-16T13:52:43;22.80;61.20
60455;DHT22;54989;53.398;6.564;2022-10-16T13:55:18;22.80;61.30
60455;DHT22;54989;53.398;6.564;2022-10-16T13:57:46;22.80;61.90
60455;DHT22;54989;53.398;6.564;2022-10-16T14:00:26;22.70;61.20
60455;DHT22;54989;53.398;6.564;2022-10-16T14:03:05;22.80;61.20
60455;DHT22;54989;53.398;6.564;2022-10-16T14:05:47;22.70;61.20
60455;DHT22;54989;53.398;6.564;2022-10-16T14:08:18;22.70;61.30
60455;DHT22;54989;53.398;6.564;2022-10-16T14:10:55;22.70;61.20
60455;DHT22;54989;53.398;6.564;2022-10-16T14:13:37;22.70;61.30
60455;DHT22;54989;53.398;6.564;2022-10-16T14:16:09;22.70;61.40
60455;DHT22;54989;53.398;6.564;2022-10-16T14:18:46;22.70;61.40
60455;DHT22;54989;53.398;6.564;2022-10-16T14:21:18;22.70;61.30
60455;DHT22;54989;53.398;6.564;2022-10-16T14:23:47;22.70;61.30
60455;DHT22;54989;53.398;6.564;2022-10-16T14:26:20;22.70;61.40
60455;DHT22;54989;53.398;6.564;2022-10-16T14:29:03;22.70;61.30
60455;DHT22;54989;53.398;6.564;2022-10-16T14:31:33;22.70;61.30
60455;DHT22;54989;53.398;6.564;2022-10-16T14:34:00;22.70;61.40
60455;DHT22;54989;53.398;6.564;2022-10-16T14:36:29;22.70;61.40
60455;DHT22;54989;53.398;6.564;2022-10-16T14:39:03;22.70;61.40
60455;DHT22;54989;53.398;6.564;2022-10-16T14:41:40;22.70;61.40
60455;DHT22;54989;53.398;6.564;2022-10-16T14:44:18;22.70;61.40
60455;DHT22;54989;53.398;6.564;2022-10-16T14:46:50;22.70;61.40
60455;DHT22;54989;53.398;6.564;2022-10-16T14:49:25;22.70;61.30
60455;DHT22;54989;53.398;6.564;2022-10-16T14:51:54;22.70;61.30
60455;DHT22;54989;53.398;6.564;2022-10-16T14:54:29;22.60;61.30
60455;DHT22;54989;53.398;6.564;2022-10-16T14:57:04;22.60;61.30
60455;DHT22;54989;53.398;6.564;2022-10-16T14:59:41;22.60;61.30
60455;DHT22;54989;53.398;6.564;2022-10-16T15:02:29;22.60;61.20
60455;DHT22;54989;53.398;6.564;2022-10-16T15:04:58;22.60;61.40
60455;DHT22;54989;53.398;6.564;2022-10-16T15:07:29;22.60;61.50
60455;DHT22;54989;53.398;6.564;2022-10-16T15:09:57;22.50;61.50
60455;DHT22;54989;53.398;6.564;2022-10-16T15:12:27;22.50;61.60
60455;DHT22;54989;53.398;6.564;2022-10-16T15:14:57;22.50;61.60
60455;DHT22;54989;53.398;6.564;2022-10-16T15:17:27;22.50;61.50
60455;DHT22;54989;53.398;6.564;2022-10-16T15:20:04;22.50;61.60
60455;DHT22;54989;53.398;6.564;2022-10-16T15:22:38;22.50;61.60
60455;DHT22;54989;53.398;6.564;2022-10-16T15:25:35;22.50;61.60
60455;DHT22;54989;53.398;6.564;2022-10-16T15:28:11;22.50;61.50
60455;DHT22;54989;53.398;6.564;2022-10-16T15:30:42;22.40;61.60
60455;DHT22;54989;53.398;6.564;2022-10-16T15:33:23;22.40;61.70
60455;DHT22;54989;53.398;6.564;2022-10-16T15:35:55;22.40;61.50
60455;DHT22;54989;53.398;6.564;2022-10-16T15:38:23;22.40;61.50
60455;DHT22;54989;53.398;6.564;2022-10-16T15:40:51;22.40;61.60
60455;DHT22;54989;53.398;6.564;2022-10-16T15:43:20;22.30;61.60
60455;DHT22;54989;53.398;6.564;2022-10-16T15:48:29;22.30;61.70
60455;DHT22;54989;53.398;6.564;2022-10-16T15:51:00;22.30;61.80
60455;DHT22;54989;53.398;6.564;2022-10-16T15:53:27;22.30;61.80
60455;DHT22;54989;53.398;6.564;2022-10-16T15:55:54;22.30;61.80
60455;DHT22;54989;53.398;6.564;2022-10-16T15:58:22;22.20;61.80
60455;DHT22;54989;53.398;6.564;2022-10-16T16:00:57;22.20;61.80
60455;DHT22;54989;53.398;6.564;2022-10-16T16:03:24;22.20;61.90
60455;DHT22;54989;53.398;6.564;2022-10-16T16:05:52;22.20;61.90
60455;DHT22;54989;53.398;6.564;2022-10-16T16:08:20;22.20;62.00
60455;DHT22;54989;53.398;6.564;2022-10-16T16:11:05;22.20;62.10
60455;DHT22;54989;53.398;6.564;2022-10-16T16:13:33;22.20;62.10
60455;DHT22;54989;53.398;6.564;2022-10-16T16:16:27;22.20;62.20
60455;DHT22;54989;53.398;6.564;2022-10-16T16:19:03;22.20;62.20
60455;DHT22;54989;53.398;6.564;2022-10-16T16:21:37;22.20;62.20
60455;DHT22;54989;53.398;6.564;2022-10-16T16:24:05;22.20;62.30
60455;DHT22;54989;53.398;6.564;2022-10-16T16:26:38;22.20;62.40
60455;DHT22;54989;53.398;6.564;2022-10-16T16:29:08;22.20;62.30
60455;DHT22;54989;53.398;6.564;2022-10-16T16:31:37;22.20;62.30
60455;DHT22;54989;53.398;6.564;2022-10-16T16:34:05;22.10;62.30
60455;DHT22;54989;53.398;6.564;2022-10-16T16:36:36;22.20;62.30
60455;DHT22;54989;53.398;6.564;2022-10-16T16:39:03;22.20;62.40
60455;DHT22;54989;53.398;6.564;2022-10-16T16:41:31;22.10;62.30
60455;DHT22;54989;53.398;6.564;2022-10-16T16:44:12;22.10;62.30
60455;DHT22;54989;53.398;6.564;2022-10-16T16:46:42;22.10;62.30
60455;DHT22;54989;53.398;6.564;2022-10-16T16:49:12;22.10;62.30
60455;DHT22;54989;53.398;6.564;2022-10-16T16:51:39;22.10;62.30
60455;DHT22;54989;53.398;6.564;2022-10-16T16:54:10;22.10;62.30
60455;DHT22;54989;53.398;6.564;2022-10-16T16:56:40;22.10;62.40
60455;DHT22;54989;53.398;6.564;2022-10-16T16:59:13;22.10;62.40
60455;DHT22;54989;53.398;6.564;2022-10-16T17:01:43;22.10;62.40
60455;DHT22;54989;53.398;6.564;2022-10-16T17:04:12;22.10;62.40
60455;DHT22;54989;53.398;6.564;2022-10-16T17:06:42;22.10;62.40
60455;DHT22;54989;53.398;6.564;2022-10-16T17:09:11;22.10;62.50
60455;DHT22;54989;53.398;6.564;2022-10-16T17:11:42;22.10;62.40
60455;DHT22;54989;53.398;6.564;2022-10-16T17:14:11;22.10;62.40
60455;DHT22;54989;53.398;6.564;2022-10-16T17:16:39;22.10;62.30
60455;DHT22;54989;53.398;6.564;2022-10-16T17:19:11;22.00;62.30
60455;DHT22;54989;53.398;6.564;2022-10-16T17:21:39;22.10;62.30
60455;DHT22;54989;53.398;6.564;2022-10-16T17:24:07;22.00;62.30
60455;DHT22;54989;53.398;6.564;2022-10-16T17:26:36;22.00;62.30
60455;DHT22;54989;53.398;6.564;2022-10-16T17:29:10;22.00;62.30
60455;DHT22;54989;53.398;6.564;2022-10-16T17:31:38;22.00;62.40
60455;DHT22;54989;53.398;6.564;2022-10-16T17:34:07;22.00;62.50
60455;DHT22;54989;53.398;6.564;2022-10-16T17:36:38;22.00;62.50
60455;DHT22;54989;53.398;6.564;2022-10-16T17:39:12;22.00;62.60
60455;DHT22;54989;53.398;6.564;2022-10-16T17:41:40;21.90;62.50
60455;DHT22;54989;53.398;6.564;2022-10-16T17:44:09;21.90;62.50
60455;DHT22;54989;53.398;6.564;2022-10-16T17:46:37;21.90;62.40
60455;DHT22;54989;53.398;6.564;2022-10-16T17:49:08;21.90;62.50
60455;DHT22;54989;53.398;6.564;2022-10-16T17:51:36;21.90;62.60